createdAt,value
2023-04-09T00:03:50.790Z,67.42
2023-04-09T00:09:11.603Z,67.31
2023-04-09T00:14:32.424Z,67.11
2023-04-09T00:19:53.104Z,67.39
2023-04-09T00:25:14.060Z,67.81
2023-04-09T00:30:35.027Z,67.53
2023-04-09T00:35:55.688Z,67.53
2023-04-09T00:41:18.328Z,67.39
2023-04-09T00:46:39.649Z,67.51
2023-04-09T00:52:01.313Z,67.87
2023-04-09T00:57:22.530Z,67.27
2023-04-09T01:02:43.962Z,67.71
2023-04-09T01:08:23.076Z,67.50
2023-04-09T01:14:23.172Z,67.57
2023-04-09T01:20:23.120Z,67.71
2023-04-09T01:26:04.856Z,67.86
2023-04-09T01:31:39.058Z,67.79
2023-04-09T01:37:03.530Z,67.74
2023-04-09T01:42:24.928Z,68.14
2023-04-09T01:47:46.793Z,68.13
2023-04-09T01:53:08.187Z,68.16
2023-04-09T01:58:29.501Z,68.36
2023-04-09T02:04:20.765Z,68.59
2023-04-09T02:09:42.120Z,68.73
2023-04-09T02:15:04.215Z,68.71
2023-04-09T02:20:24.880Z,68.35
2023-04-09T02:25:46.022Z,68.29
2023-04-09T02:31:07.217Z,68.89
2023-04-09T02:36:28.288Z,68.70
2023-04-09T02:41:49.622Z,68.82
2023-04-09T02:47:10.355Z,68.17
2023-04-09T02:52:32.729Z,67.99
2023-04-09T02:57:53.406Z,68.43
2023-04-09T03:03:14.281Z,68.67
2023-04-09T03:08:35.643Z,68.37
2023-04-09T03:13:56.812Z,68.67
2023-04-09T03:19:17.757Z,68.88
2023-04-09T03:24:39.132Z,68.30
2023-04-09T03:30:00.793Z,68.05
2023-04-09T03:35:29.513Z,67.84
2023-04-09T03:40:53.074Z,68.22
2023-04-09T03:46:17.859Z,68.30
2023-04-09T03:51:41.631Z,68.07
2023-04-09T03:57:04.542Z,68.21
2023-04-09T04:02:27.350Z,68.53
2023-04-09T04:07:56.010Z,68.96
2023-04-09T04:13:21.454Z,68.97
2023-04-09T04:18:49.154Z,68.40
2023-04-09T04:24:11.665Z,68.31
2023-04-09T04:29:33.320Z,68.52
2023-04-09T04:34:55.772Z,68.41
2023-04-09T04:40:19.837Z,68.69
2023-04-09T04:45:44.080Z,69.05
2023-04-09T04:51:06.271Z,69.02
2023-04-09T04:56:34.594Z,69.10
2023-04-09T05:02:02.678Z,68.98
2023-04-09T05:07:27.294Z,69.63
2023-04-09T05:12:50.660Z,68.89
2023-04-09T05:18:29.068Z,69.60
2023-04-09T05:23:49.881Z,69.16
2023-04-09T05:29:10.500Z,69.44
2023-04-09T05:34:31.447Z,69.40
2023-04-09T05:39:52.194Z,69.80
2023-04-09T05:45:13.021Z,70.02
2023-04-09T05:50:53.866Z,69.75
2023-04-09T05:56:18.475Z,69.68
2023-04-09T06:01:45.480Z,69.73
2023-04-09T06:07:06.483Z,69.96
2023-04-09T06:12:27.141Z,69.89
2023-04-09T06:17:47.921Z,70.31
2023-04-09T06:23:08.609Z,70.03
2023-04-09T06:28:29.859Z,70.22
2023-04-09T06:33:50.889Z,70.41
2023-04-09T06:39:11.897Z,70.06
2023-04-09T06:44:34.252Z,70.50
2023-04-09T06:49:54.883Z,70.28
2023-04-09T06:55:15.633Z,70.22
2023-04-09T07:00:36.326Z,71.41
2023-04-09T07:05:57.839Z,70.61
2023-04-09T07:11:18.561Z,70.34
2023-04-09T07:16:39.677Z,70.89
2023-04-09T07:22:00.591Z,70.71
2023-04-09T07:27:25.886Z,72.88
2023-04-09T07:32:47.309Z,71.20
2023-04-09T07:38:08.098Z,70.96
2023-04-09T07:43:28.884Z,70.54
2023-04-09T07:48:50.393Z,70.62
2023-04-09T07:54:11.945Z,70.98
2023-04-09T07:59:35.122Z,71.09
2023-04-09T08:04:55.972Z,71.02
2023-04-09T08:10:16.989Z,71.32
2023-04-09T08:15:38.000Z,72.36
2023-04-09T08:20:58.589Z,71.45
2023-04-09T08:26:19.228Z,71.07
2023-04-09T08:31:39.980Z,70.82
2023-04-09T08:37:00.742Z,70.90
2023-04-09T08:42:24.100Z,70.44
2023-04-09T08:47:47.096Z,71.02
2023-04-09T08:53:09.659Z,70.79
2023-04-09T08:58:30.314Z,70.72
2023-04-09T09:04:01.424Z,70.79
2023-04-09T09:09:22.444Z,70.93
2023-04-09T09:14:43.256Z,70.39
2023-04-09T09:20:20.664Z,71.90
2023-04-09T09:25:42.407Z,70.12
2023-04-09T09:31:11.082Z,70.55
2023-04-09T09:36:33.936Z,70.13
2023-04-09T09:42:07.884Z,69.76
2023-04-09T09:47:29.887Z,69.98
2023-04-09T09:52:54.436Z,69.94
2023-04-09T09:58:24.980Z,69.58
2023-04-09T10:03:47.151Z,70.05
2023-04-09T10:09:08.092Z,70.09
2023-04-09T10:14:29.481Z,69.68
2023-04-09T10:20:16.496Z,69.51
2023-04-09T10:25:37.156Z,70.18
2023-04-09T10:30:59.265Z,69.33
2023-04-09T10:36:22.376Z,69.94
2023-04-09T10:41:44.880Z,69.92
2023-04-09T10:47:06.337Z,69.60
2023-04-09T10:52:30.577Z,69.68
2023-04-09T10:57:51.522Z,69.34
2023-04-09T11:03:32.506Z,69.16
2023-04-09T11:08:53.696Z,68.58
2023-04-09T11:14:20.458Z,68.61
2023-04-09T11:19:41.368Z,68.96
2023-04-09T11:25:03.069Z,68.42
2023-04-09T11:30:24.252Z,69.01
2023-04-09T11:35:45.325Z,68.58
2023-04-09T11:41:06.343Z,68.33
2023-04-09T11:46:27.614Z,68.74
2023-04-09T11:51:48.458Z,68.14
2023-04-09T11:57:09.237Z,68.51
2023-04-09T12:02:30.282Z,68.98
2023-04-09T12:13:16.801Z,68.98
2023-04-09T12:18:40.038Z,68.25
2023-04-09T12:24:01.277Z,67.69
2023-04-09T12:29:22.595Z,67.65
2023-04-09T12:34:43.871Z,67.83
2023-04-09T12:40:05.182Z,67.74
2023-04-09T12:45:26.415Z,67.71
2023-04-09T12:50:47.764Z,67.69
2023-04-09T12:56:08.969Z,67.72
2023-04-09T13:01:29.944Z,67.87
2023-04-09T13:06:50.548Z,67.88
2023-04-09T13:12:14.776Z,67.61
2023-04-09T13:17:35.810Z,67.06
2023-04-09T13:22:57.293Z,67.85
2023-04-09T13:28:17.990Z,67.75
2023-04-09T13:33:38.733Z,67.81
2023-04-09T13:39:04.566Z,67.65
2023-04-09T13:44:26.767Z,67.80
2023-04-09T13:49:47.672Z,67.37
2023-04-09T13:55:09.087Z,67.40
2023-04-09T14:00:31.786Z,69.70
2023-04-09T14:05:52.817Z,67.26
2023-04-09T14:11:18.210Z,66.52
2023-04-09T14:16:38.911Z,66.59
2023-04-09T14:21:59.573Z,68.17
2023-04-09T14:27:20.403Z,66.59
2023-04-09T14:32:41.183Z,66.93
2023-04-09T14:38:04.509Z,66.72
2023-04-09T14:43:25.647Z,66.07
2023-04-09T14:48:46.615Z,66.58
2023-04-09T14:54:07.454Z,66.65
2023-04-09T14:59:28.459Z,66.66
2023-04-09T15:04:49.395Z,66.76
2023-04-09T15:10:10.718Z,67.43
2023-04-09T15:15:32.294Z,67.59
2023-04-09T15:20:52.950Z,66.36
2023-04-09T15:26:13.680Z,66.84
2023-04-09T15:31:34.511Z,66.61
2023-04-09T15:36:55.099Z,66.52
2023-04-09T15:42:20.345Z,66.63
2023-04-09T15:47:41.144Z,67.09
2023-04-09T15:53:01.845Z,66.71
2023-04-09T15:58:22.648Z,66.74
2023-04-09T16:03:43.349Z,67.04
2023-04-09T16:09:04.157Z,67.81
2023-04-09T16:14:24.686Z,67.51
2023-04-09T16:19:45.403Z,67.29
2023-04-09T16:25:06.765Z,67.79
2023-04-09T16:30:27.579Z,67.73
2023-04-09T16:35:48.374Z,68.02
2023-04-09T16:41:09.353Z,68.47
2023-04-09T16:46:30.170Z,68.63
2023-04-09T16:51:53.136Z,68.08
2023-04-09T16:57:14.766Z,68.28
2023-04-09T17:02:36.784Z,68.86
2023-04-09T17:07:57.774Z,68.71
2023-04-09T17:13:18.398Z,68.48
2023-04-09T17:18:39.224Z,68.70
2023-04-09T17:24:01.960Z,69.65
2023-04-09T17:29:23.298Z,68.77
2023-04-09T17:34:47.465Z,68.46
2023-04-09T17:40:08.886Z,69.04
2023-04-09T17:45:29.981Z,68.67
2023-04-09T17:50:50.731Z,68.63
2023-04-09T17:56:18.089Z,68.47
2023-04-09T18:01:38.837Z,68.17
2023-04-09T18:06:59.548Z,68.25
2023-04-09T18:12:20.181Z,68.94
2023-04-09T18:17:42.245Z,68.88
2023-04-09T18:23:03.207Z,69.01
2023-04-09T18:28:23.957Z,68.62
2023-04-09T18:33:44.779Z,68.46
2023-04-09T18:39:05.618Z,68.53
2023-04-09T18:44:26.384Z,68.75
2023-04-09T18:49:47.494Z,69.02
2023-04-09T18:55:08.937Z,69.19
2023-04-09T19:00:30.095Z,68.87
2023-04-09T19:05:51.466Z,68.48
2023-04-09T19:11:14.395Z,68.63
2023-04-09T19:16:35.644Z,69.10
2023-04-09T19:21:56.305Z,68.74
2023-04-09T19:27:18.156Z,68.97
2023-04-09T19:32:39.197Z,69.01
2023-04-09T19:38:01.565Z,69.12
2023-04-09T19:43:23.782Z,69.07
2023-04-09T19:48:44.837Z,68.97
2023-04-09T19:54:05.806Z,68.78
2023-04-09T19:59:27.208Z,68.83
2023-04-09T20:04:47.932Z,68.93
2023-04-09T20:10:10.454Z,69.40
2023-04-09T20:15:31.536Z,69.43
2023-04-09T20:20:53.234Z,69.51
2023-04-09T20:26:14.036Z,69.58
2023-04-09T20:31:36.154Z,69.39
2023-04-09T20:36:57.689Z,69.51
2023-04-09T20:42:18.398Z,69.23
2023-04-09T20:47:39.192Z,69.29
2023-04-09T20:53:00.086Z,69.27
2023-04-09T20:58:21.312Z,69.13
2023-04-09T21:03:42.324Z,69.36
2023-04-09T21:09:03.184Z,69.68
2023-04-09T21:14:23.877Z,69.55
2023-04-09T21:19:44.635Z,69.54
2023-04-09T21:25:06.100Z,69.54
2023-04-09T21:30:27.811Z,69.22
2023-04-09T21:35:52.207Z,69.20
2023-04-09T21:41:13.116Z,69.48
2023-04-09T21:46:36.412Z,69.10
2023-04-09T21:51:59.274Z,69.55
2023-04-09T21:57:20.560Z,69.46
2023-04-09T22:02:42.012Z,69.71
2023-04-09T22:08:03.027Z,69.42
2023-04-09T22:13:23.831Z,69.08
2023-04-09T22:18:45.249Z,69.22
2023-04-09T22:24:06.505Z,69.44
2023-04-09T22:29:28.458Z,69.07
2023-04-09T22:34:49.212Z,69.26
2023-04-09T22:40:14.380Z,69.21
2023-04-09T22:45:34.928Z,69.52
2023-04-09T22:50:57.982Z,69.35
2023-04-09T22:56:19.723Z,69.26
2023-04-09T23:01:40.748Z,69.51
2023-04-09T23:07:02.363Z,69.72
2023-04-09T23:12:23.146Z,69.19
2023-04-09T23:17:44.020Z,69.70
2023-04-09T23:23:04.871Z,69.28
2023-04-09T23:28:25.943Z,69.49
2023-04-09T23:33:46.855Z,69.25
2023-04-09T23:39:07.421Z,69.20
2023-04-09T23:44:28.101Z,69.15
2023-04-09T23:49:48.776Z,69.51
2023-04-09T23:55:10.820Z,69.58
